createdAt,value
2018-11-22T00:00:23.736Z,0.00
2018-11-22T00:01:23.729Z,0.00
2018-11-22T00:02:23.725Z,0.00
2018-11-22T00:03:23.715Z,0.00
2018-11-22T00:04:23.749Z,0.00
2018-11-22T00:05:23.702Z,0.00
2018-11-22T00:06:23.697Z,0.00
2018-11-22T00:07:23.689Z,0.00
2018-11-22T00:08:23.679Z,0.00
2018-11-22T00:09:23.706Z,0.00
2018-11-22T00:10:23.668Z,0.00
2018-11-22T00:11:23.666Z,0.00
2018-11-22T00:12:23.649Z,0.00
2018-11-22T00:13:23.639Z,0.00
2018-11-22T00:14:23.678Z,0.00
2018-11-22T00:15:23.632Z,0.00
2018-11-22T00:16:23.624Z,0.00
2018-11-22T00:17:23.624Z,0.00
2018-11-22T00:18:23.608Z,0.00
2018-11-22T00:19:23.640Z,0.00
2018-11-22T00:20:23.596Z,0.00
2018-11-22T00:21:23.592Z,0.00
2018-11-22T00:22:23.584Z,0.00
2018-11-22T00:23:23.576Z,0.00
2018-11-22T00:24:23.604Z,0.00
2018-11-22T00:25:23.561Z,0.00
2018-11-22T00:26:23.555Z,0.00
2018-11-22T00:27:23.547Z,0.00
2018-11-22T00:28:23.541Z,0.00
2018-11-22T00:29:23.568Z,0.00
2018-11-22T00:30:23.523Z,0.00
2018-11-22T00:31:23.518Z,0.00
2018-11-22T00:32:23.511Z,0.00
2018-11-22T00:33:23.500Z,0.00
2018-11-22T00:34:23.535Z,0.00
2018-11-22T00:35:23.492Z,0.00
2018-11-22T00:36:23.483Z,0.00
2018-11-22T00:37:23.475Z,0.00
2018-11-22T00:38:23.470Z,0.00
2018-11-22T00:39:23.498Z,0.00
2018-11-22T00:40:23.454Z,0.00
2018-11-22T00:41:23.444Z,0.00
2018-11-22T00:42:23.441Z,0.00
2018-11-22T00:43:23.435Z,0.00
2018-11-22T00:44:23.458Z,0.00
2018-11-22T00:45:23.419Z,0.00
2018-11-22T00:46:23.417Z,0.00
2018-11-22T00:47:23.406Z,0.00
2018-11-22T00:48:23.397Z,0.00
2018-11-22T00:49:23.429Z,0.00
2018-11-22T00:50:23.385Z,0.00
2018-11-22T00:51:23.375Z,0.00
2018-11-22T00:52:23.369Z,0.00
2018-11-22T00:53:23.365Z,0.00
2018-11-22T00:54:23.392Z,0.00
2018-11-22T00:55:23.355Z,0.00
2018-11-22T00:56:23.338Z,0.00
2018-11-22T00:57:23.333Z,0.00
2018-11-22T00:58:23.365Z,0.00
2018-11-22T00:59:23.320Z,0.00
2018-11-22T01:00:23.312Z,0.00
2018-11-22T01:01:23.306Z,0.00
2018-11-22T01:02:23.300Z,0.00
2018-11-22T01:03:23.332Z,0.00
2018-11-22T01:04:23.283Z,0.00
2018-11-22T01:05:23.280Z,0.00
2018-11-22T01:06:23.274Z,0.00
2018-11-22T01:07:23.271Z,0.00
2018-11-22T01:08:23.293Z,0.00
2018-11-22T01:09:23.288Z,0.00
2018-11-22T01:10:23.243Z,0.00
2018-11-22T01:11:23.231Z,0.00
2018-11-22T01:12:23.230Z,0.00
2018-11-22T01:13:23.223Z,0.00
2018-11-22T01:14:23.252Z,0.00
2018-11-22T01:15:23.208Z,0.00
2018-11-22T01:16:23.200Z,0.00
2018-11-22T01:17:23.195Z,0.00
2018-11-22T01:18:23.220Z,0.00
2018-11-22T01:19:23.179Z,0.00
2018-11-22T01:20:23.172Z,0.00
2018-11-22T01:21:23.168Z,0.00
2018-11-22T01:22:23.159Z,0.00
2018-11-22T01:23:23.187Z,0.00
2018-11-22T01:24:23.147Z,0.00
2018-11-22T01:25:23.135Z,0.00
2018-11-22T01:26:23.133Z,0.00
2018-11-22T01:27:23.126Z,0.00
2018-11-22T01:28:23.150Z,0.00
2018-11-22T01:29:23.107Z,0.00
2018-11-22T01:30:23.102Z,0.00
2018-11-22T01:31:23.098Z,0.00
2018-11-22T01:32:23.094Z,0.00
2018-11-22T01:33:23.120Z,0.00
2018-11-22T01:34:23.074Z,0.00
2018-11-22T01:35:23.070Z,0.00
2018-11-22T01:36:23.062Z,0.00
2018-11-22T01:37:23.056Z,0.00
2018-11-22T01:38:23.082Z,0.00
2018-11-22T01:39:23.042Z,0.00
2018-11-22T01:40:23.034Z,0.00
2018-11-22T01:41:23.028Z,0.00
2018-11-22T01:42:23.022Z,0.00
2018-11-22T01:43:23.050Z,0.00
2018-11-22T01:44:23.002Z,0.00
2018-11-22T01:45:23.006Z,0.00
2018-11-22T01:46:22.994Z,0.00
2018-11-22T01:47:22.986Z,0.00
2018-11-22T01:48:23.014Z,0.00
2018-11-22T01:49:22.969Z,0.00
2018-11-22T01:50:22.961Z,0.00
2018-11-22T01:51:22.961Z,0.00
2018-11-22T01:52:22.992Z,0.00
2018-11-22T01:53:22.946Z,0.00
2018-11-22T01:54:22.937Z,0.00
2018-11-22T01:55:22.937Z,0.00
2018-11-22T01:56:22.917Z,0.00
2018-11-22T01:57:22.954Z,0.00
2018-11-22T01:58:22.909Z,0.00
2018-11-22T01:59:22.976Z,0.00
2018-11-22T02:00:22.899Z,0.00
2018-11-22T02:01:22.889Z,0.00
2018-11-22T02:02:22.918Z,0.00
2018-11-22T02:03:22.872Z,0.00
2018-11-22T02:04:22.866Z,0.00
2018-11-22T02:05:22.860Z,0.00
2018-11-22T02:06:22.855Z,0.00
2018-11-22T02:07:22.880Z,0.00
2018-11-22T02:08:22.845Z,0.00
2018-11-22T02:09:22.831Z,0.00
2018-11-22T02:10:22.861Z,0.00
2018-11-22T02:11:22.819Z,0.00
2018-11-22T02:12:22.811Z,0.00
2018-11-22T02:13:22.840Z,0.00
2018-11-22T02:14:22.799Z,0.00
2018-11-22T02:15:22.795Z,0.00
2018-11-22T02:16:22.780Z,0.00
2018-11-22T02:17:22.816Z,0.00
2018-11-22T02:18:22.771Z,0.00
2018-11-22T02:19:22.768Z,0.00
2018-11-22T02:20:22.755Z,0.00
2018-11-22T02:21:22.751Z,0.00
2018-11-22T02:22:22.779Z,0.00
2018-11-22T02:23:22.735Z,0.00
2018-11-22T02:24:22.732Z,0.00
2018-11-22T02:25:22.714Z,0.00
2018-11-22T02:26:22.723Z,0.00
2018-11-22T02:27:22.753Z,0.00
2018-11-22T02:28:22.698Z,0.00
2018-11-22T02:29:22.695Z,0.00
2018-11-22T02:30:22.725Z,0.00
2018-11-22T02:31:22.684Z,0.00
2018-11-22T02:32:22.679Z,0.00
2018-11-22T02:33:22.700Z,0.00
2018-11-22T02:34:22.658Z,0.00
2018-11-22T02:35:22.651Z,0.00
2018-11-22T02:36:22.643Z,0.00
2018-11-22T02:37:22.642Z,0.00
2018-11-22T02:38:22.666Z,0.00
2018-11-22T02:39:22.630Z,0.00
2018-11-22T02:40:22.618Z,0.00
2018-11-22T02:41:22.636Z,0.00
2018-11-22T02:42:22.598Z,0.00
2018-11-22T02:43:22.631Z,0.00
2018-11-22T02:44:22.593Z,0.00
2018-11-22T02:45:22.581Z,0.00
2018-11-22T02:46:22.574Z,0.00
2018-11-22T02:47:22.569Z,0.00
2018-11-22T02:48:22.597Z,0.00
2018-11-22T02:49:22.557Z,0.00
2018-11-22T02:50:22.549Z,0.00
2018-11-22T02:51:22.541Z,0.00
2018-11-22T02:52:22.535Z,0.00
2018-11-22T02:53:22.565Z,0.00
2018-11-22T02:54:22.522Z,0.00
2018-11-22T02:55:22.517Z,0.00
2018-11-22T02:56:22.501Z,0.00
2018-11-22T02:57:22.507Z,0.00
2018-11-22T02:58:22.533Z,0.00
2018-11-22T02:59:22.484Z,0.00
2018-11-22T03:00:22.481Z,0.00
2018-11-22T03:01:22.487Z,0.00
2018-11-22T03:02:22.480Z,0.00
2018-11-22T03:03:22.501Z,0.00
2018-11-22T03:04:22.465Z,0.00
2018-11-22T03:05:22.456Z,0.00
2018-11-22T03:06:22.448Z,0.00
2018-11-22T03:07:22.449Z,0.00
2018-11-22T03:08:22.462Z,0.00
2018-11-22T03:09:22.427Z,0.00
2018-11-22T03:10:22.424Z,0.00
2018-11-22T03:11:22.449Z,0.00
2018-11-22T03:12:22.405Z,0.00
2018-11-22T03:13:22.411Z,0.00
2018-11-22T03:14:22.425Z,0.00
2018-11-22T03:15:22.388Z,0.00
2018-11-22T03:16:22.380Z,0.00
2018-11-22T03:17:22.377Z,0.00
2018-11-22T03:18:22.369Z,0.00
2018-11-22T03:19:22.388Z,0.00
2018-11-22T03:20:22.358Z,0.00
2018-11-22T03:21:22.352Z,0.00
2018-11-22T03:22:22.339Z,0.00
2018-11-22T03:23:22.334Z,0.00
2018-11-22T03:24:22.491Z,0.00
2018-11-22T03:25:22.319Z,0.00
2018-11-22T03:26:22.314Z,0.00
2018-11-22T03:27:22.302Z,0.00
2018-11-22T03:28:22.300Z,0.00
2018-11-22T03:29:22.319Z,0.00
2018-11-22T03:30:22.284Z,0.00
2018-11-22T03:31:22.279Z,0.00
2018-11-22T03:32:22.274Z,0.00
2018-11-22T03:33:22.262Z,0.00
2018-11-22T03:34:22.289Z,0.00
2018-11-22T03:35:22.259Z,0.00
2018-11-22T03:36:22.273Z,0.00
2018-11-22T03:37:22.230Z,0.00
2018-11-22T03:38:22.230Z,0.00
2018-11-22T03:39:22.220Z,0.00
2018-11-22T03:40:22.242Z,0.00
2018-11-22T03:41:22.210Z,0.00
2018-11-22T03:42:22.202Z,0.00
2018-11-22T03:43:22.193Z,0.00
2018-11-22T03:44:22.186Z,0.00
2018-11-22T03:45:22.206Z,0.00
2018-11-22T03:46:22.173Z,0.00
2018-11-22T03:47:22.165Z,0.00
2018-11-22T03:48:22.158Z,0.00
2018-11-22T03:49:22.154Z,0.00
2018-11-22T03:50:22.177Z,0.00
2018-11-22T03:51:22.138Z,0.00
2018-11-22T03:52:22.133Z,0.00
2018-11-22T03:53:22.130Z,0.00
2018-11-22T03:54:22.118Z,0.00
2018-11-22T03:55:22.140Z,0.00
2018-11-22T03:56:22.106Z,0.00
2018-11-22T03:57:22.105Z,0.00
2018-11-22T03:58:22.089Z,0.00
2018-11-22T03:59:22.077Z,0.00
2018-11-22T04:00:22.105Z,0.00
2018-11-22T04:01:22.068Z,0.00
2018-11-22T04:02:22.057Z,0.00
2018-11-22T04:03:22.062Z,0.00
2018-11-22T04:04:22.048Z,0.00
2018-11-22T04:05:22.067Z,0.00
2018-11-22T04:06:22.032Z,0.00
2018-11-22T04:07:22.028Z,0.00
2018-11-22T04:08:22.021Z,0.00
2018-11-22T04:09:22.012Z,0.00
2018-11-22T04:10:22.032Z,0.00
2018-11-22T04:11:22.002Z,0.00
2018-11-22T04:12:21.992Z,0.00
2018-11-22T04:13:21.990Z,0.00
2018-11-22T04:14:21.976Z,0.00
2018-11-22T04:15:22.003Z,0.00
2018-11-22T04:16:21.964Z,0.00
2018-11-22T04:17:21.988Z,0.00
2018-11-22T04:18:21.951Z,0.00
2018-11-22T04:19:21.942Z,0.00
2018-11-22T04:20:21.940Z,0.00
2018-11-22T04:21:21.967Z,0.00
2018-11-22T04:22:21.927Z,0.00
2018-11-22T04:23:21.919Z,0.00
2018-11-22T04:24:21.912Z,0.00
2018-11-22T04:25:21.907Z,0.00
2018-11-22T04:26:24.101Z,0.00
2018-11-22T04:27:21.895Z,0.00
2018-11-22T04:28:21.887Z,0.00
2018-11-22T04:29:21.871Z,0.00
2018-11-22T04:30:21.873Z,0.00
2018-11-22T04:31:21.891Z,0.00
2018-11-22T04:32:21.854Z,0.00
2018-11-22T04:33:21.844Z,0.00
2018-11-22T04:34:21.843Z,0.00
2018-11-22T04:35:21.831Z,0.00
2018-11-22T04:36:21.860Z,0.00
2018-11-22T04:37:21.852Z,0.00
2018-11-22T04:38:21.815Z,0.00
2018-11-22T04:39:21.810Z,0.00
2018-11-22T04:40:21.802Z,0.00
2018-11-22T04:41:21.822Z,0.00
2018-11-22T04:42:21.790Z,0.00
2018-11-22T04:43:21.786Z,0.00
2018-11-22T04:44:21.774Z,0.00
2018-11-22T04:45:21.773Z,0.00
2018-11-22T04:46:21.789Z,0.00
2018-11-22T04:47:21.754Z,0.00
2018-11-22T04:48:21.746Z,0.00
2018-11-22T04:49:21.741Z,0.00
2018-11-22T04:50:21.734Z,0.00
2018-11-22T04:51:21.754Z,0.00
2018-11-22T04:52:21.718Z,0.00
2018-11-22T04:53:21.715Z,0.00
2018-11-22T04:54:21.707Z,0.00
2018-11-22T04:55:21.701Z,0.00
2018-11-22T04:56:21.721Z,0.00
2018-11-22T04:57:21.685Z,0.00
2018-11-22T04:58:21.690Z,0.00
2018-11-22T04:59:21.675Z,0.00
2018-11-22T05:00:21.675Z,0.00
2018-11-22T05:01:21.694Z,0.00
2018-11-22T05:02:21.682Z,0.00
2018-11-22T05:03:21.647Z,0.00
2018-11-22T05:04:22.318Z,0.00
2018-11-22T05:05:21.628Z,0.00
2018-11-22T05:06:21.625Z,0.00
2018-11-22T05:07:21.648Z,0.00
2018-11-22T05:08:21.611Z,0.00
2018-11-22T05:09:21.624Z,0.00
2018-11-22T05:10:21.604Z,0.00
2018-11-22T05:11:21.594Z,0.00
2018-11-22T05:12:21.612Z,0.00
2018-11-22T05:13:21.579Z,0.00
2018-11-22T05:14:21.576Z,0.00
2018-11-22T05:15:21.566Z,0.00
2018-11-22T05:16:21.552Z,0.00
2018-11-22T05:17:21.581Z,0.00
2018-11-22T05:18:21.544Z,0.00
2018-11-22T05:19:21.542Z,0.00
2018-11-22T05:20:21.532Z,0.00
2018-11-22T05:21:21.527Z,0.00
2018-11-22T05:22:21.547Z,0.00
2018-11-22T05:23:21.511Z,0.00
2018-11-22T05:24:21.501Z,0.00
2018-11-22T05:25:21.497Z,0.00
2018-11-22T05:26:21.492Z,0.00
2018-11-22T05:27:21.517Z,0.00
2018-11-22T05:28:21.503Z,0.00
2018-11-22T05:29:21.471Z,0.00
2018-11-22T05:30:21.467Z,0.00
2018-11-22T05:31:21.458Z,0.00
2018-11-22T05:32:21.448Z,0.00
2018-11-22T05:33:21.479Z,0.00
2018-11-22T05:34:21.438Z,0.00
2018-11-22T05:35:21.433Z,0.00
2018-11-22T05:36:21.437Z,0.00
2018-11-22T05:37:21.435Z,0.00
2018-11-22T05:38:21.439Z,0.00
2018-11-22T05:39:21.410Z,0.00
2018-11-22T05:40:21.398Z,0.00
2018-11-22T05:41:21.393Z,0.00
2018-11-22T05:42:21.383Z,0.00
2018-11-22T05:43:21.406Z,0.00
2018-11-22T05:44:21.486Z,0.00
2018-11-22T05:45:21.362Z,0.00
2018-11-22T05:46:21.357Z,0.00
2018-11-22T05:47:21.353Z,0.00
2018-11-22T05:48:21.369Z,0.00
2018-11-22T05:49:21.337Z,0.00
2018-11-22T05:50:21.330Z,0.00
2018-11-22T05:51:21.325Z,0.00
2018-11-22T05:52:21.318Z,0.00
2018-11-22T05:53:21.341Z,0.00
2018-11-22T05:54:21.306Z,0.00
2018-11-22T05:55:21.300Z,0.00
2018-11-22T05:56:21.291Z,0.00
2018-11-22T05:57:21.285Z,0.00
2018-11-22T05:58:21.304Z,0.00
2018-11-22T05:59:21.267Z,0.00
2018-11-22T06:00:21.265Z,0.00
2018-11-22T06:01:21.262Z,0.00
2018-11-22T06:02:21.253Z,0.00
2018-11-22T06:03:21.314Z,0.00
2018-11-22T06:04:21.239Z,0.00
2018-11-22T06:05:21.232Z,0.00
2018-11-22T06:06:21.230Z,4.00
2018-11-22T06:07:21.217Z,4.00
2018-11-22T06:08:21.217Z,4.00
2018-11-22T06:09:21.234Z,0.00
2018-11-22T06:10:21.198Z,4.00
2018-11-22T06:11:21.191Z,4.00
2018-11-22T06:12:21.190Z,4.00
2018-11-22T06:13:21.180Z,8.00
2018-11-22T06:14:21.200Z,8.00
2018-11-22T06:15:21.160Z,12.00
2018-11-22T06:16:21.163Z,12.00
2018-11-22T06:17:21.152Z,12.00
2018-11-22T06:18:21.150Z,16.00
2018-11-22T06:19:21.212Z,20.00
2018-11-22T06:20:21.133Z,24.00
2018-11-22T06:21:21.119Z,28.00
2018-11-22T06:22:21.120Z,32.00
2018-11-22T06:23:21.107Z,36.00
2018-11-22T06:24:21.310Z,40.00
2018-11-22T06:25:21.102Z,44.00
2018-11-22T06:26:21.091Z,48.00
2018-11-22T06:27:21.087Z,56.00
2018-11-22T06:28:21.078Z,64.00
2018-11-22T06:29:21.095Z,72.00
2018-11-22T06:30:21.097Z,84.00
2018-11-22T06:31:21.062Z,92.00
2018-11-22T06:32:21.055Z,100.00
2018-11-22T06:33:21.047Z,120.00
2018-11-22T06:34:21.047Z,140.00
2018-11-22T06:35:21.063Z,152.00
2018-11-22T06:36:21.814Z,164.00
2018-11-22T06:37:21.026Z,176.00
2018-11-22T06:38:21.003Z,196.00
2018-11-22T06:39:21.007Z,224.00
2018-11-22T06:40:21.031Z,220.00
2018-11-22T06:41:20.991Z,236.00
2018-11-22T06:42:20.991Z,268.00
2018-11-22T06:43:21.005Z,276.00
2018-11-22T06:44:20.975Z,284.00
2018-11-22T06:45:21.000Z,316.00
2018-11-22T06:46:20.962Z,348.00
2018-11-22T06:47:20.953Z,400.00
2018-11-22T06:48:20.945Z,432.00
2018-11-22T06:49:20.938Z,464.00
2018-11-22T06:50:20.968Z,496.00
2018-11-22T06:51:20.925Z,532.00
2018-11-22T06:52:20.918Z,584.00
2018-11-22T06:53:20.912Z,616.00
2018-11-22T06:54:20.910Z,660.00
2018-11-22T06:55:20.926Z,696.00
2018-11-22T06:56:21.083Z,712.00
2018-11-22T06:57:20.889Z,740.00
2018-11-22T06:58:20.880Z,768.00
2018-11-22T06:59:20.873Z,816.00
2018-11-22T07:00:20.896Z,872.00
2018-11-22T07:01:20.864Z,928.00
2018-11-22T07:02:20.857Z,972.00
2018-11-22T07:03:20.849Z,1012.00
2018-11-22T07:04:20.839Z,1036.00
2018-11-22T07:05:20.868Z,1048.00
2018-11-22T07:06:20.828Z,1064.00
2018-11-22T07:07:20.823Z,1112.00
2018-11-22T07:08:20.819Z,1140.00
2018-11-22T07:09:20.808Z,1140.00
2018-11-22T07:10:20.831Z,1136.00
2018-11-22T07:11:20.796Z,1160.00
2018-11-22T07:12:20.790Z,1188.00
2018-11-22T07:13:20.784Z,1228.00
2018-11-22T07:14:20.775Z,1284.00
2018-11-22T07:15:20.797Z,1328.00
2018-11-22T07:16:20.785Z,1384.00
2018-11-22T07:17:20.756Z,1396.00
2018-11-22T07:18:20.753Z,1328.00
2018-11-22T07:19:20.743Z,1248.00
2018-11-22T07:20:20.739Z,1248.00
2018-11-22T07:21:20.759Z,1312.00
2018-11-22T07:22:20.723Z,1352.00
2018-11-22T07:23:20.720Z,1332.00
2018-11-22T07:24:20.714Z,1356.00
2018-11-22T07:25:20.707Z,1280.00
2018-11-22T07:26:20.726Z,1392.00
2018-11-22T07:27:20.691Z,1484.00
2018-11-22T07:28:20.691Z,1440.00
2018-11-22T07:29:20.681Z,1448.00
2018-11-22T07:30:20.678Z,1488.00
2018-11-22T07:31:20.694Z,1612.00
2018-11-22T07:32:20.663Z,1604.00
2018-11-22T07:33:20.655Z,1680.00
2018-11-22T07:34:20.649Z,1564.00
2018-11-22T07:35:20.642Z,1480.00
2018-11-22T07:36:20.662Z,1708.00
2018-11-22T07:37:20.626Z,1832.00
2018-11-22T07:38:20.623Z,1840.00
2018-11-22T07:39:20.614Z,1940.00
2018-11-22T07:40:20.609Z,2020.00
2018-11-22T07:41:20.626Z,1828.00
2018-11-22T07:42:20.598Z,1824.00
2018-11-22T07:43:20.589Z,1900.00
2018-11-22T07:44:20.586Z,2100.00
2018-11-22T07:45:20.603Z,1900.00
2018-11-22T07:46:20.574Z,1840.00
2018-11-22T07:47:20.593Z,1992.00
2018-11-22T07:48:20.556Z,1904.00
2018-11-22T07:49:20.553Z,1948.00
2018-11-22T07:50:20.545Z,2040.00
2018-11-22T07:51:20.538Z,1884.00
2018-11-22T07:52:20.564Z,1684.00
2018-11-22T07:53:20.528Z,1688.00
2018-11-22T07:54:20.522Z,1800.00
2018-11-22T07:55:20.513Z,1976.00
2018-11-22T07:56:20.541Z,2144.00
2018-11-22T07:57:20.528Z,2264.00
2018-11-22T07:58:20.492Z,2888.00
2018-11-22T07:59:20.489Z,3548.00
2018-11-22T08:00:20.497Z,3940.00
2018-11-22T08:01:20.471Z,3364.00
2018-11-22T08:02:20.501Z,3252.00
2018-11-22T08:03:20.462Z,3276.00
2018-11-22T08:04:20.456Z,3264.00
2018-11-22T08:05:20.452Z,3320.00
2018-11-22T08:06:20.445Z,3076.00
2018-11-22T08:07:20.466Z,2928.00
2018-11-22T08:08:20.432Z,2916.00
2018-11-22T08:09:20.428Z,2884.00
2018-11-22T08:10:20.419Z,2824.00
2018-11-22T08:11:20.407Z,2736.00
2018-11-22T08:12:25.883Z,2528.00
2018-11-22T08:13:20.397Z,2300.00
2018-11-22T08:14:20.391Z,2212.00
2018-11-22T08:15:20.384Z,2436.00
2018-11-22T08:16:20.380Z,2404.00
2018-11-22T08:17:20.403Z,2640.00
2018-11-22T08:18:20.367Z,3116.00
2018-11-22T08:19:20.364Z,3516.00
2018-11-22T08:20:20.355Z,3684.00
2018-11-22T08:21:20.375Z,4196.00
2018-11-22T08:22:20.346Z,4392.00
2018-11-22T08:23:20.364Z,4792.00
2018-11-22T08:24:20.333Z,5124.00
2018-11-22T08:25:20.323Z,4968.00
2018-11-22T08:26:20.325Z,5204.00
2018-11-22T08:27:20.311Z,5344.00
2018-11-22T08:28:20.345Z,5180.00
2018-11-22T08:29:20.299Z,5172.00
2018-11-22T08:30:20.295Z,5352.00
2018-11-22T08:31:20.289Z,5240.00
2018-11-22T08:32:20.284Z,5024.00
2018-11-22T08:33:20.302Z,4816.00
2018-11-22T08:34:20.273Z,5076.00
2018-11-22T08:35:20.261Z,5328.00
2018-11-22T08:36:20.261Z,5140.00
2018-11-22T08:37:20.250Z,5420.00
2018-11-22T08:38:20.270Z,5268.00
2018-11-22T08:39:20.237Z,5020.00
2018-11-22T08:40:20.231Z,5400.00
2018-11-22T08:41:20.229Z,5472.00
2018-11-22T08:42:20.222Z,5068.00
2018-11-22T08:43:20.241Z,5588.00
2018-11-22T08:44:20.205Z,5784.00
2018-11-22T08:45:20.201Z,6052.00
2018-11-22T08:46:20.193Z,6444.00
2018-11-22T08:47:20.190Z,6584.00
2018-11-22T08:48:20.211Z,6472.00
2018-11-22T08:49:20.178Z,6472.00
2018-11-22T08:50:20.169Z,6688.00
2018-11-22T08:51:20.193Z,6620.00
2018-11-22T08:52:20.158Z,6392.00
2018-11-22T08:53:20.153Z,6160.00
2018-11-22T08:54:20.182Z,5944.00
2018-11-22T08:55:20.141Z,5684.00
2018-11-22T08:56:20.130Z,5820.00
2018-11-22T08:57:20.129Z,5772.00
2018-11-22T08:58:20.122Z,5880.00
2018-11-22T08:59:20.146Z,5796.00
2018-11-22T09:00:20.112Z,5516.00
2018-11-22T09:01:20.105Z,5636.00
2018-11-22T09:02:20.100Z,5208.00
2018-11-22T09:03:20.096Z,5192.00
2018-11-22T09:04:21.175Z,5108.00
2018-11-22T09:05:20.084Z,5376.00
2018-11-22T09:06:20.075Z,6204.00
2018-11-22T09:07:20.075Z,6488.00
2018-11-22T09:08:20.065Z,6348.00
2018-11-22T09:09:20.059Z,6040.00
2018-11-22T09:10:20.079Z,5884.00
2018-11-22T09:11:20.047Z,5912.00
2018-11-22T09:12:20.035Z,5852.00
2018-11-22T09:13:20.031Z,5908.00
2018-11-22T09:14:20.023Z,6048.00
2018-11-22T09:15:20.047Z,6032.00
2018-11-22T09:16:20.006Z,5800.00
2018-11-22T09:17:20.011Z,5868.00
2018-11-22T09:18:20.009Z,6736.00
2018-11-22T09:19:19.995Z,7652.00
2018-11-22T09:20:20.019Z,8608.00
2018-11-22T09:21:19.982Z,8824.00
2018-11-22T09:22:19.980Z,8448.00
2018-11-22T09:23:19.968Z,8184.00
2018-11-22T09:24:24.096Z,7496.00
2018-11-22T09:25:19.991Z,7352.00
2018-11-22T09:26:19.951Z,7368.00
2018-11-22T09:27:19.950Z,7340.00
2018-11-22T09:28:19.950Z,7536.00
2018-11-22T09:29:19.963Z,7816.00
2018-11-22T09:30:19.934Z,8564.00
2018-11-22T09:31:19.926Z,9264.00
2018-11-22T09:32:19.950Z,9624.00
2018-11-22T09:33:19.926Z,9548.00
2018-11-22T09:34:19.909Z,9676.00
2018-11-22T09:35:19.975Z,9984.00
2018-11-22T09:36:19.892Z,10184.00
2018-11-22T09:37:19.897Z,10120.00
2018-11-22T09:38:19.890Z,10008.00
2018-11-22T09:39:19.876Z,10232.00
2018-11-22T09:40:19.904Z,10228.00
2018-11-22T09:41:19.872Z,10408.00
2018-11-22T09:42:19.913Z,10328.00
2018-11-22T09:43:19.860Z,10176.00
2018-11-22T09:44:19.856Z,9948.00
2018-11-22T09:45:19.874Z,9840.00
2018-11-22T09:46:19.843Z,10528.00
2018-11-22T09:47:19.839Z,11872.00
2018-11-22T09:48:19.836Z,14052.00
2018-11-22T09:49:19.835Z,15180.00
2018-11-22T09:50:19.857Z,14288.00
2018-11-22T09:51:19.832Z,12936.00
2018-11-22T09:52:19.812Z,12276.00
2018-11-22T09:53:19.812Z,12028.00
2018-11-22T09:54:19.803Z,11332.00
2018-11-22T09:55:19.827Z,10856.00
2018-11-22T09:56:19.794Z,11084.00
2018-11-22T09:57:19.801Z,11212.00
2018-11-22T09:58:19.788Z,10504.00
2018-11-22T09:59:19.836Z,9796.00
2018-11-22T10:00:19.799Z,8744.00
2018-11-22T10:01:19.771Z,7808.00
2018-11-22T10:02:19.767Z,7336.00
2018-11-22T10:03:19.767Z,7492.00
2018-11-22T10:04:19.760Z,8388.00
2018-11-22T10:05:19.871Z,9620.00
2018-11-22T10:06:19.751Z,11420.00
2018-11-22T10:07:19.746Z,13828.00
2018-11-22T10:08:19.759Z,15880.00
2018-11-22T10:09:19.755Z,17376.00
2018-11-22T10:10:19.762Z,16984.00
2018-11-22T10:11:19.729Z,15268.00
2018-11-22T10:12:19.746Z,13932.00
2018-11-22T10:13:19.718Z,13704.00
2018-11-22T10:14:19.722Z,14184.00
2018-11-22T10:15:19.742Z,14400.00
2018-11-22T10:16:19.710Z,14028.00
2018-11-22T10:17:19.701Z,12560.00
2018-11-22T10:18:19.702Z,10916.00
2018-11-22T10:19:19.704Z,9716.00
2018-11-22T10:20:19.726Z,8824.00
2018-11-22T10:21:19.692Z,8720.00
2018-11-22T10:22:19.716Z,8236.00
2018-11-22T10:23:19.682Z,8412.00
2018-11-22T10:24:19.731Z,9524.00
2018-11-22T10:25:19.697Z,9924.00
2018-11-22T10:26:19.672Z,9620.00
2018-11-22T10:27:19.665Z,9484.00
2018-11-22T10:28:19.664Z,9920.00
2018-11-22T10:29:19.690Z,10292.00
2018-11-22T10:30:19.710Z,9716.00
2018-11-22T10:31:19.712Z,10264.00
2018-11-22T10:32:19.713Z,11012.00
2018-11-22T10:33:19.639Z,10608.00
2018-11-22T10:34:19.629Z,10656.00
2018-11-22T10:35:19.708Z,11668.00
2018-11-22T10:36:19.661Z,14212.00
2018-11-22T10:37:19.616Z,16788.00
2018-11-22T10:38:19.639Z,16332.00
2018-11-22T10:40:11.762Z,15348.00
2018-11-22T10:41:11.373Z,14468.00
2018-11-22T10:42:11.509Z,15088.00
2018-11-22T10:43:11.399Z,15616.00
2018-11-22T10:44:11.818Z,14636.00
2018-11-22T10:45:11.377Z,13736.00
2018-11-22T10:46:11.355Z,13248.00
2018-11-22T10:47:11.343Z,13804.00
2018-11-22T10:48:11.392Z,13920.00
2018-11-22T10:49:11.387Z,13828.00
2018-11-22T10:50:11.413Z,12760.00
2018-11-22T10:51:11.340Z,11352.00
2018-11-22T10:52:11.345Z,9712.00
2018-11-22T10:53:11.351Z,8724.00
2018-11-22T10:54:11.344Z,8780.00
2018-11-22T10:55:11.312Z,9236.00
2018-11-22T10:56:11.343Z,9568.00
2018-11-22T10:57:11.305Z,9996.00
2018-11-22T10:58:11.296Z,10872.00
2018-11-22T10:59:11.301Z,11500.00
2018-11-22T11:00:11.435Z,11672.00
2018-11-22T11:01:11.318Z,11596.00
2018-11-22T11:02:11.294Z,11732.00
2018-11-22T11:03:11.281Z,11872.00
2018-11-22T11:04:11.277Z,12200.00
2018-11-22T11:05:11.309Z,12964.00
2018-11-22T11:06:11.274Z,14076.00
2018-11-22T11:07:11.264Z,14068.00
2018-11-22T11:08:11.290Z,13852.00
2018-11-22T11:09:11.252Z,13884.00
2018-11-22T11:10:11.249Z,15088.00
2018-11-22T11:11:11.279Z,16232.00
2018-11-22T11:12:11.248Z,16312.00
2018-11-22T11:13:11.242Z,17108.00
2018-11-22T11:14:11.234Z,17192.00
2018-11-22T11:15:11.232Z,17024.00
2018-11-22T11:16:11.256Z,18560.00
2018-11-22T11:17:11.229Z,19456.00
2018-11-22T11:18:11.221Z,19264.00
2018-11-22T11:19:11.218Z,19136.00
2018-11-22T11:20:11.211Z,18752.00
2018-11-22T11:21:11.238Z,17504.00
2018-11-22T11:22:11.207Z,16180.00
2018-11-22T11:23:11.204Z,15332.00
2018-11-22T11:24:11.204Z,14608.00
2018-11-22T11:25:11.193Z,14164.00
2018-11-22T11:26:11.216Z,13312.00
2018-11-22T11:27:11.179Z,11776.00
2018-11-22T11:28:11.184Z,10532.00
2018-11-22T11:29:12.801Z,10696.00
2018-11-22T11:30:11.171Z,11080.00
2018-11-22T11:31:11.202Z,10508.00
2018-11-22T11:32:11.171Z,9940.00
2018-11-22T11:33:11.159Z,8676.00
2018-11-22T11:34:11.155Z,7852.00
2018-11-22T11:35:11.152Z,7524.00
2018-11-22T11:36:14.100Z,7204.00
2018-11-22T11:37:11.143Z,6692.00
2018-11-22T11:38:11.135Z,7164.00
2018-11-22T11:39:11.131Z,7336.00
2018-11-22T11:40:11.315Z,6808.00
2018-11-22T11:41:11.154Z,6516.00
2018-11-22T11:42:11.121Z,6900.00
2018-11-22T11:43:11.127Z,6952.00
2018-11-22T11:44:11.113Z,6900.00
2018-11-22T11:45:11.114Z,6724.00
2018-11-22T11:46:11.134Z,6520.00
2018-11-22T11:47:11.106Z,6704.00
2018-11-22T11:48:11.104Z,6800.00
2018-11-22T11:49:11.122Z,6804.00
2018-11-22T11:50:11.082Z,6804.00
2018-11-22T11:51:11.115Z,6584.00
2018-11-22T11:52:11.083Z,6172.00
2018-11-22T11:53:11.074Z,5968.00
2018-11-22T11:54:11.073Z,5684.00
2018-11-22T11:55:11.094Z,5412.00
2018-11-22T11:56:11.057Z,5060.00
2018-11-22T11:57:11.054Z,4864.00
2018-11-22T11:58:11.046Z,5092.00
2018-11-22T11:59:11.079Z,5116.00
2018-11-22T12:00:11.042Z,4680.00
2018-11-22T12:01:11.060Z,4460.00
2018-11-22T12:02:15.224Z,4336.00
2018-11-22T12:03:11.029Z,4096.00
2018-11-22T12:04:11.026Z,3896.00
2018-11-22T12:05:11.018Z,3876.00
2018-11-22T12:06:11.033Z,3940.00
2018-11-22T12:07:11.001Z,3780.00
2018-11-22T12:08:10.998Z,3708.00
2018-11-22T12:09:10.997Z,3772.00
2018-11-22T12:10:10.989Z,3692.00
2018-11-22T12:11:11.014Z,3580.00
2018-11-22T12:12:10.980Z,3476.00
2018-11-22T12:13:10.977Z,3628.00
2018-11-22T12:14:10.976Z,3656.00
2018-11-22T12:15:10.971Z,3556.00
2018-11-22T12:16:10.989Z,3468.00
2018-11-22T12:17:10.963Z,3520.00
2018-11-22T12:18:10.952Z,3668.00
2018-11-22T12:19:10.949Z,3772.00
2018-11-22T12:20:10.967Z,3940.00
2018-11-22T12:21:10.933Z,3868.00
2018-11-22T12:22:10.928Z,3740.00
2018-11-22T12:23:10.926Z,3612.00
2018-11-22T12:24:10.952Z,3748.00
2018-11-22T12:25:10.916Z,3824.00
2018-11-22T12:26:10.941Z,3784.00
2018-11-22T12:27:10.904Z,4124.00
2018-11-22T12:28:10.904Z,4228.00
2018-11-22T12:29:10.897Z,4196.00
2018-11-22T12:30:10.890Z,4100.00
2018-11-22T12:31:10.912Z,4192.00
2018-11-22T12:32:10.876Z,4296.00
2018-11-22T12:33:10.879Z,4152.00
2018-11-22T12:34:10.868Z,4156.00
2018-11-22T12:35:10.872Z,4008.00
2018-11-22T12:36:10.885Z,3828.00
2018-11-22T12:37:10.857Z,4056.00
2018-11-22T12:38:10.861Z,4032.00
2018-11-22T12:39:10.842Z,3972.00
2018-11-22T12:40:10.867Z,3772.00